Capitol Island, Maine
Current Conditions -  °F | °C
As of 2:53 AM on Monday 26 Jan 2015 (Local Time) from KIWI Reporting Station
Clear Clear  
Wind Chill:   Ceiling: Unl
Heat Index:   Visibility: 10mi
Dew Point: -5°   Wind: 0mph
Humidity: 69%   Direction: NA
Pressure: 30.12"   Gusts: NA
Location:  43.854°N, 69.611°W
Report Text: KIWI 260753Z AUTO 00000KT 10SM CLR M16/M21 A3012 RMK AO2 SLP199 T11611206
Loading
Personal Weather Stations






























Interactive Weather Map New forecast layout! Learn more

10-Day Weather Forecast

Advertisements
Track Severe Weather on mobile